Time;durP1;ratioP1;P1;durP2;ratioP2;P2;SDS_P1;SDS_P2;PMS_P1;PMS_P2;Temp;Humidity;BMP_temperature;BMP_pressure;BME280_temperature;BME280_humidity;BME280_pressure;Samples;Min_cycle;Max_cycle;Signal;HPM_P1;HPM_P2
2023/06/09 00:01:37;;;;;;;6.55;5.68;;;15.70;99.90;15.70;100478.00;;;;5009199;27;110328;-71
2023/06/09 00:04:07;;;;;;;7.88;5.78;;;15.60;99.90;15.60;100464.00;;;;5003511;27;93103;-70
2023/06/09 00:06:35;;;;;;;7.70;5.13;;;15.60;99.90;15.60;100464.00;;;;5007018;27;93602;-70
2023/06/09 00:09:04;;;;;;;6.25;5.60;;;15.50;99.90;15.50;100468.00;;;;5006308;27;92149;-69
2023/06/09 00:11:30;;;;;;;6.55;5.22;;;15.50;99.90;15.50;100466.00;;;;5005478;27;93000;-70
2023/06/09 00:13:56;;;;;;;5.13;4.55;;;15.50;99.90;15.40;100468.00;;;;5003612;27;108762;-70
2023/06/09 00:16:25;;;;;;;7.93;5.97;;;15.40;99.90;15.40;100471.00;;;;4986951;27;124007;-70
2023/06/09 00:18:52;;;;;;;6.13;5.43;;;15.40;99.90;15.40;100455.00;;;;5003998;27;94058;-69
2023/06/09 00:21:18;;;;;;;7.55;5.53;;;15.40;99.90;15.30;100456.00;;;;5005416;27;95331;-69
2023/06/09 00:23:45;;;;;;;7.60;5.35;;;15.30;99.90;15.30;100459.00;;;;5005031;27;93351;-69
2023/06/09 00:26:12;;;;;;;8.25;5.97;;;15.30;99.90;15.30;100451.00;;;;4991190;27;110044;-69
2023/06/09 00:28:38;;;;;;;9.65;6.88;;;15.20;99.90;15.20;100452.00;;;;5002913;27;113200;-69
2023/06/09 00:31:04;;;;;;;5.93;5.22;;;15.20;99.90;15.20;100446.00;;;;5002738;27;92941;-69
2023/06/09 00:33:30;;;;;;;7.43;5.68;;;15.20;99.90;15.20;100448.00;;;;5004617;27;92121;-69
2023/06/09 00:35:55;;;;;;;6.95;5.65;;;15.20;99.90;15.20;100441.00;;;;5000968;27;115598;-71
2023/06/09 00:38:21;;;;;;;6.10;5.50;;;15.10;99.90;15.10;100444.00;;;;5002237;27;123199;-71
2023/06/09 00:40:50;;;;;;;5.93;5.33;;;15.10;99.90;15.10;100442.00;;;;5002626;27;111588;-71
2023/06/09 00:43:16;;;;;;;10.07;5.55;;;15.10;99.90;15.00;100441.00;;;;5006734;27;102086;-71
2023/06/09 00:45:42;;;;;;;5.97;5.25;;;15.00;99.90;15.00;100441.00;;;;5008160;27;121249;-70
2023/06/09 00:48:08;;;;;;;7.15;5.50;;;15.00;99.90;15.00;100451.00;;;;5004208;27;123401;-71
2023/06/09 00:50:34;;;;;;;4.22;3.83;;;15.00;99.90;14.90;100447.00;;;;5003549;27;108977;-69
2023/06/09 00:53:00;;;;;;;6.72;5.05;;;14.90;99.90;14.90;100445.00;;;;4985550;27;98742;-69
2023/06/09 00:55:28;;;;;;;8.57;4.90;;;14.90;99.90;14.90;100445.00;;;;4992671;27;122714;-70
2023/06/09 00:57:55;;;;;;;6.47;4.95;;;14.90;99.90;14.90;100443.00;;;;4995529;27;110510;-69
2023/06/09 01:00:26;;;;;;;8.07;5.50;;;14.80;99.90;14.80;100442.00;;;;5005158;27;92922;-69
2023/06/09 01:03:00;;;;;;;5.45;4.95;;;14.80;99.90;14.80;100444.00;;;;4995529;27;93002;-69
2023/06/09 01:05:37;;;;;;;8.75;5.57;;;14.80;99.90;14.70;100453.00;;;;4991852;27;94637;-69
2023/06/09 01:08:37;;;;;;;5.25;4.70;;;14.70;99.90;14.60;100452.00;;;;5005178;27;94753;-69
2023/06/09 01:11:21;;;;;;;10.60;6.05;;;14.70;99.90;14.60;100450.00;;;;4999775;27;92992;-69
2023/06/09 01:14:24;;;;;;;8.90;5.83;;;14.60;99.90;14.50;100450.00;;;;4989456;27;93017;-69
2023/06/09 01:17:07;;;;;;;6.73;5.67;;;14.50;99.90;14.40;100442.00;;;;4978534;27;95295;-69
2023/06/09 01:20:05;;;;;;;6.63;5.37;;;14.50;99.90;14.40;100443.00;;;;5006927;27;93869;-69
2023/06/09 01:23:04;;;;;;;11.83;5.33;;;14.40;99.90;14.30;100435.00;;;;4991690;27;94518;-69
2023/06/09 01:25:39;;;;;;;8.33;5.47;;;14.40;99.90;14.30;100443.00;;;;4992402;27;92352;-69
2023/06/09 01:28:21;;;;;;;7.50;5.60;;;14.30;99.90;14.20;100439.00;;;;4999199;27;93438;-69
2023/06/09 01:30:49;;;;;;;6.77;5.77;;;14.30;99.90;14.20;100436.00;;;;4995487;27;93242;-70
2023/06/09 01:33:21;;;;;;;7.97;6.27;;;14.20;99.90;14.10;100439.00;;;;4991084;27;94382;-69
2023/06/09 01:35:48;;;;;;;6.80;5.67;;;14.20;99.90;14.10;100435.00;;;;5005430;27;101045;-69
2023/06/09 01:38:16;;;;;;;7.07;6.37;;;14.10;99.90;14.10;100435.00;;;;5008660;27;93786;-70
2023/06/09 01:40:43;;;;;;;6.80;5.77;;;14.00;99.90;14.00;100443.00;;;;4990927;27;93342;-69
2023/06/09 01:43:08;;;;;;;10.63;7.50;;;14.00;99.90;14.00;100435.00;;;;5004399;27;92992;-70
2023/06/09 01:45:34;;;;;;;6.20;5.60;;;14.00;99.90;14.00;100434.00;;;;5005769;27;107837;-70
2023/06/09 01:48:09;;;;;;;6.47;5.63;;;14.00;99.90;14.00;100439.00;;;;5002650;27;121678;-70
2023/06/09 01:51:01;;;;;;;6.30;5.70;;;14.00;99.90;13.90;100439.00;;;;4985998;27;93270;-70
2023/06/09 01:53:34;;;;;;;8.47;6.87;;;13.90;99.90;13.90;100444.00;;;;4990412;27;102931;-70
2023/06/09 01:56:21;;;;;;;7.93;6.03;;;13.90;99.90;13.80;100441.00;;;;4992258;27;101238;-70
2023/06/09 01:58:52;;;;;;;9.77;6.30;;;13.90;99.90;13.80;100441.00;;;;4961970;28;95551;-70
2023/06/09 02:01:18;;;;;;;7.97;5.50;;;13.80;99.90;13.80;100436.00;;;;4972101;27;94517;-70
2023/06/09 02:03:46;;;;;;;9.60;5.30;;;13.80;99.90;13.80;100433.00;;;;4969122;27;93353;-71
2023/06/09 02:06:21;;;;;;;8.23;6.07;;;13.80;99.90;13.70;100430.00;;;;4990250;27;92912;-71
2023/06/09 02:08:48;;;;;;;9.37;6.93;;;13.80;99.90;13.70;100434.00;;;;5003697;27;121510;-69
2023/06/09 02:11:21;;;;;;;10.13;6.70;;;13.70;99.90;13.70;100433.00;;;;4991253;27;120258;-69
2023/06/09 02:13:54;;;;;;;6.77;6.00;;;13.70;99.90;13.60;100432.00;;;;4996565;27;92890;-70
2023/06/09 02:16:21;;;;;;;8.43;6.97;;;13.60;99.90;13.60;100431.00;;;;4999344;27;93541;-70
2023/06/09 02:18:48;;;;;;;7.17;5.43;;;13.60;99.90;13.60;100433.00;;;;4987010;27;93926;-70
2023/06/09 02:21:15;;;;;;;10.60;6.10;;;13.60;99.90;13.60;100437.00;;;;5010780;27;93738;-69
2023/06/09 02:23:40;;;;;;;6.93;5.67;;;13.60;99.90;13.60;100428.00;;;;5005768;27;102649;-69
2023/06/09 02:26:06;;;;;;;8.47;6.10;;;13.60;99.90;13.60;100432.00;;;;5011444;27;108523;-70
2023/06/09 02:28:33;;;;;;;6.50;5.40;;;13.60;99.90;13.70;100426.00;;;;4993846;27;108482;-69
2023/06/09 02:30:59;;;;;;;7.60;5.53;;;13.60;99.90;13.70;100430.00;;;;4994080;27;93081;-69
2023/06/09 02:33:25;;;;;;;6.90;5.90;;;13.70;99.90;13.70;100435.00;;;;5010272;27;93084;-69
2023/06/09 02:35:51;;;;;;;8.10;7.07;;;13.70;99.90;13.70;100428.00;;;;5006555;27;92756;-69
2023/06/09 02:38:17;;;;;;;7.20;5.63;;;13.70;99.90;13.80;100430.00;;;;5006190;27;115484;-70
2023/06/09 02:40:45;;;;;;;7.23;5.03;;;13.70;99.90;13.80;100431.00;;;;5008226;27;121037;-70
2023/06/09 02:43:12;;;;;;;6.80;5.40;;;13.70;99.90;13.80;100425.00;;;;5006354;27;92839;-70
2023/06/09 02:45:38;;;;;;;6.83;5.60;;;13.70;99.90;13.80;100428.00;;;;5008223;27;92821;-70
2023/06/09 02:48:05;;;;;;;8.17;6.03;;;13.70;99.90;13.80;100425.00;;;;5004302;27;121042;-70
2023/06/09 02:50:31;;;;;;;8.73;6.30;;;13.80;99.90;13.80;100433.00;;;;5006906;27;94811;-69
2023/06/09 02:52:56;;;;;;;5.70;5.20;;;13.80;99.90;13.80;100429.00;;;;5001149;27;111534;-69
2023/06/09 02:55:22;;;;;;;9.33;6.33;;;13.80;99.90;13.80;100436.00;;;;5009523;27;108749;-69
2023/06/09 02:57:48;;;;;;;7.03;5.90;;;13.80;99.90;13.80;100430.00;;;;4989748;27;101734;-70
2023/06/09 03:00:15;;;;;;;5.10;4.70;;;13.80;99.90;13.80;100439.00;;;;5005835;27;120716;-70
2023/06/09 03:02:42;;;;;;;6.47;5.87;;;13.80;99.90;13.80;100442.00;;;;5010054;27;92932;-70
2023/06/09 03:05:09;;;;;;;9.70;5.67;;;13.80;99.90;13.80;100440.00;;;;5006420;27;92101;-70
2023/06/09 03:07:36;;;;;;;7.23;5.40;;;13.80;99.90;13.80;100444.00;;;;4998350;27;93331;-70
2023/06/09 03:10:03;;;;;;;7.43;5.80;;;13.80;99.90;13.80;100436.00;;;;4990261;27;93524;-70
2023/06/09 03:12:29;;;;;;;13.10;6.17;;;13.80;99.90;13.80;100446.00;;;;5005948;27;96084;-70
2023/06/09 03:14:55;;;;;;;8.07;6.50;;;13.70;99.90;13.80;100435.00;;;;5009157;27;107886;-69
2023/06/09 03:17:20;;;;;;;7.60;5.70;;;13.70;99.90;13.80;100433.00;;;;5007390;27;116916;-69
2023/06/09 03:19:46;;;;;;;8.33;6.20;;;13.70;99.90;13.80;100437.00;;;;5010752;27;123680;-70
2023/06/09 03:22:12;;;;;;;8.40;6.60;;;13.80;99.90;13.80;100442.00;;;;5003314;27;110201;-71
2023/06/09 03:24:39;;;;;;;6.63;5.37;;;13.80;99.90;13.80;100445.00;;;;5008477;27;92929;-70
2023/06/09 03:27:05;;;;;;;8.10;6.47;;;13.80;99.90;13.90;100445.00;;;;5006519;27;94860;-69
2023/06/09 03:29:31;;;;;;;7.50;6.60;;;13.80;99.90;13.90;100449.00;;;;5008151;27;93156;-70
2023/06/09 03:31:57;;;;;;;6.97;5.90;;;13.80;99.90;13.90;100444.00;;;;5006944;27;92777;-71
2023/06/09 03:34:23;;;;;;;9.43;5.53;;;13.90;99.90;14.00;100449.00;;;;5006460;27;93065;-69
2023/06/09 03:36:49;;;;;;;6.17;5.37;;;13.90;99.90;14.00;100449.00;;;;5003505;27;124578;-71
2023/06/09 03:39:14;;;;;;;7.80;6.37;;;13.90;99.90;14.00;100453.00;;;;5003983;27;123343;-70
2023/06/09 03:41:40;;;;;;;7.10;5.63;;;13.90;99.90;14.00;100452.00;;;;5010703;27;92706;-70
2023/06/09 03:44:06;;;;;;;8.37;6.60;;;13.90;99.90;14.00;100461.00;;;;5001625;27;103195;-69
2023/06/09 03:46:31;;;;;;;8.73;6.13;;;13.90;99.90;14.10;100459.00;;;;5008910;27;108524;-70
2023/06/09 03:48:57;;;;;;;7.93;7.00;;;14.10;99.90;14.10;100459.00;;;;5005771;27;93108;-70
2023/06/09 03:51:23;;;;;;;7.40;6.50;;;14.00;99.90;14.20;100473.00;;;;5001968;27;109928;-70
2023/06/09 03:53:49;;;;;;;7.00;6.20;;;14.10;99.90;14.30;100475.00;;;;5008965;27;92334;-70
2023/06/09 03:56:14;;;;;;;6.93;5.37;;;14.20;99.90;14.30;100481.00;;;;5003238;27;123876;-70
2023/06/09 03:58:40;;;;;;;9.20;6.43;;;14.20;99.90;14.40;100477.00;;;;5003561;27;92890;-70
2023/06/09 04:01:10;;;;;;;9.80;7.67;;;14.30;99.90;14.50;100478.00;;;;4986753;27;94031;-70
2023/06/09 04:03:37;;;;;;;12.38;5.90;;;14.40;99.90;14.60;100485.00;;;;4997802;27;93349;-70
2023/06/09 04:06:03;;;;;;;10.90;6.53;;;14.50;99.90;14.70;100475.00;;;;5005796;27;93446;-69
2023/06/09 04:08:29;;;;;;;7.28;5.80;;;14.60;99.90;14.80;100479.00;;;;5005786;27;102887;-69
2023/06/09 04:10:55;;;;;;;7.00;5.87;;;14.60;99.90;14.80;100478.00;;;;5006042;27;111500;-70
2023/06/09 04:13:21;;;;;;;9.57;5.87;;;14.70;99.90;14.90;100476.00;;;;5008486;27;107963;-70
2023/06/09 04:15:47;;;;;;;9.48;6.93;;;14.80;99.90;14.90;100474.00;;;;5004386;27;122591;-70
2023/06/09 04:18:12;;;;;;;8.63;7.30;;;14.80;99.90;14.90;100474.00;;;;5007182;27;92621;-70
2023/06/09 04:20:38;;;;;;;7.45;6.05;;;14.90;99.90;15.00;100495.00;;;;5007755;27;93051;-70
2023/06/09 04:23:05;;;;;;;8.35;5.55;;;14.90;99.90;15.00;100482.00;;;;4986308;27;108313;-70
2023/06/09 04:25:34;;;;;;;7.00;6.25;;;14.90;99.90;15.00;100491.00;;;;5007256;27;94998;-70
2023/06/09 04:28:02;;;;;;;6.47;5.68;;;14.90;99.90;15.00;100488.00;;;;4991002;27;93736;-70
2023/06/09 04:30:29;;;;;;;10.60;6.55;;;15.00;99.90;15.10;100489.00;;;;5003487;27;92869;-70
2023/06/09 04:32:59;;;;;;;12.95;5.80;;;15.00;99.90;15.10;100485.00;;;;5005142;27;92967;-71
2023/06/09 04:35:24;;;;;;;7.80;6.50;;;15.00;99.90;15.10;100480.00;;;;5006466;27;120992;-70
2023/06/09 04:37:51;;;;;;;11.55;6.32;;;15.00;99.90;15.10;100471.00;;;;5001578;27;123546;-69
2023/06/09 04:40:23;;;;;;;9.43;7.15;;;15.10;99.90;15.20;100481.00;;;;5001279;27;93068;-69
2023/06/09 04:42:57;;;;;;;7.30;6.38;;;15.10;99.90;15.20;100476.00;;;;4987123;27;92543;-70
2023/06/09 04:45:33;;;;;;;9.40;6.70;;;15.10;99.90;15.30;100477.00;;;;4985077;27;93149;-70
2023/06/09 04:47:59;;;;;;;8.02;6.78;;;15.20;99.90;15.30;100476.00;;;;5001387;27;93184;-70
2023/06/09 04:50:35;;;;;;;8.85;7.18;;;15.20;99.90;15.40;100474.00;;;;5000828;27;93787;-70
2023/06/09 04:53:03;;;;;;;7.05;6.05;;;15.30;99.90;15.50;100476.00;;;;4984797;28;94486;-70
2023/06/09 04:55:30;;;;;;;7.57;6.07;;;15.40;99.90;15.60;100477.00;;;;5000472;27;93297;-70
2023/06/09 04:57:57;;;;;;;9.35;5.75;;;15.50;99.90;15.80;100476.00;;;;5002042;27;93377;-70
2023/06/09 05:00:26;;;;;;;7.88;6.32;;;15.60;99.90;15.90;100478.00;;;;4990967;27;92983;-70
2023/06/09 05:02:53;;;;;;;9.85;7.00;;;15.80;99.90;16.10;100485.00;;;;5002090;27;93016;-70
2023/06/09 05:05:21;;;;;;;7.40;6.63;;;16.00;99.90;16.30;100479.00;;;;5004195;27;112790;-70
2023/06/09 05:07:47;;;;;;;7.95;6.47;;;16.10;99.90;16.50;100481.00;;;;5001757;27;122693;-70
2023/06/09 05:10:12;;;;;;;7.65;6.85;;;16.30;99.90;16.80;100479.00;;;;5002488;27;111324;-70
2023/06/09 05:12:39;;;;;;;7.68;6.82;;;16.60;99.90;17.00;100484.00;;;;5004708;27;108947;-70
2023/06/09 05:15:06;;;;;;;6.75;6.13;;;16.80;99.90;17.20;100489.00;;;;5002654;27;95141;-71
2023/06/09 05:17:33;;;;;;;7.95;6.45;;;17.00;99.90;17.40;100496.00;;;;5001992;27;95543;-70
2023/06/09 05:20:00;;;;;;;7.45;5.22;;;17.20;99.90;17.60;100493.00;;;;5003014;27;92948;-70
2023/06/09 05:22:26;;;;;;;6.78;4.95;;;17.40;99.90;17.80;100485.00;;;;5003751;27;93285;-70
2023/06/09 05:24:53;;;;;;;6.35;4.68;;;17.60;99.90;18.00;100492.00;;;;5000118;27;121828;-70
2023/06/09 05:27:18;;;;;;;5.90;5.28;;;17.90;99.90;18.20;100485.00;;;;5000391;27;93153;-70
2023/06/09 05:29:44;;;;;;;7.45;5.80;;;18.10;99.90;18.50;100493.00;;;;5005367;27;111062;-70
2023/06/09 05:32:10;;;;;;;8.32;4.75;;;18.30;99.90;18.70;100507.00;;;;5006749;27;92125;-70
2023/06/09 05:34:35;;;;;;;6.47;5.68;;;18.50;99.90;18.90;100507.00;;;;5003150;27;94035;-70
2023/06/09 05:37:02;;;;;;;7.90;4.13;;;18.70;99.90;19.10;100507.00;;;;5002105;27;125785;-71
2023/06/09 05:39:27;;;;;;;5.10;3.80;;;18.80;99.90;19.30;100516.00;;;;5002473;27;93952;-71
2023/06/09 05:41:53;;;;;;;6.13;4.68;;;19.10;99.90;19.40;100509.00;;;;5005338;27;108894;-70
2023/06/09 05:44:19;;;;;;;6.13;4.25;;;19.20;99.90;19.70;100512.00;;;;5002643;27;96059;-70
2023/06/09 05:46:45;;;;;;;6.80;4.93;;;19.40;99.90;19.90;100509.00;;;;5002659;27;93819;-70
2023/06/09 05:49:10;;;;;;;7.28;4.55;;;19.60;99.90;20.00;100513.00;;;;5007649;27;93617;-70
2023/06/09 05:51:36;;;;;;;5.38;4.30;;;19.80;99.90;20.20;100516.00;;;;5008463;27;109821;-70
2023/06/09 05:54:02;;;;;;;6.18;3.97;;;20.00;99.90;20.40;100527.00;;;;4984203;27;94079;-70
2023/06/09 05:56:27;;;;;;;5.68;4.53;;;20.20;99.90;20.70;100515.00;;;;4983459;28;117179;-72
2023/06/09 05:59:01;;;;;;;5.10;4.20;;;20.40;99.90;20.90;100517.00;;;;4965304;28;108210;-71
2023/06/09 06:01:27;;;;;;;7.15;3.70;;;20.60;99.90;21.20;100514.00;;;;4988543;28;92970;-72
2023/06/09 06:03:53;;;;;;;7.30;3.72;;;20.90;99.90;21.40;100516.00;;;;4988373;27;123848;-70
2023/06/09 06:06:19;;;;;;;5.05;3.75;;;21.10;99.90;21.70;100517.00;;;;4982428;28;94745;-71
2023/06/09 06:08:44;;;;;;;7.65;3.95;;;21.40;99.90;21.90;100518.00;;;;4986558;27;110243;-71
2023/06/09 06:11:10;;;;;;;6.18;4.20;;;21.70;99.90;22.20;100510.00;;;;4987248;27;110420;-71
2023/06/09 06:13:36;;;;;;;9.20;4.65;;;21.90;99.90;22.40;100515.00;;;;4970118;28;103770;-70
2023/06/09 06:16:02;;;;;;;5.63;4.25;;;22.10;99.90;22.60;100516.00;;;;4987661;27;123236;-70
2023/06/09 06:18:27;;;;;;;4.03;3.25;;;22.30;99.30;22.70;100523.00;;;;4991527;27;92790;-71
2023/06/09 06:20:53;;;;;;;6.53;4.18;;;22.50;98.50;22.80;100526.00;;;;4989628;27;92074;-70
2023/06/09 06:23:19;;;;;;;4.47;3.47;;;22.60;97.80;23.00;100525.00;;;;4986533;27;98995;-71
2023/06/09 06:25:45;;;;;;;5.35;2.97;;;22.80;97.10;23.10;100528.00;;;;4987083;27;92948;-71
2023/06/09 06:28:10;;;;;;;4.55;3.45;;;22.90;96.30;23.20;100527.00;;;;4986978;27;93656;-72
2023/06/09 06:30:37;;;;;;;4.60;2.72;;;23.00;95.60;23.30;100526.00;;;;4976457;28;108444;-71
2023/06/09 06:33:09;;;;;;;3.10;2.75;;;23.00;95.00;23.30;100521.00;;;;4989888;27;94278;-71
2023/06/09 06:35:35;;;;;;;2.97;2.38;;;23.10;94.40;23.40;100539.00;;;;4983932;27;93832;-71
2023/06/09 06:38:01;;;;;;;2.72;2.22;;;23.20;92.10;23.40;100527.00;;;;4986655;27;110139;-71
2023/06/09 06:40:27;;;;;;;3.15;2.15;;;23.20;91.10;23.50;100538.00;;;;4987772;28;108165;-69
2023/06/09 06:42:54;;;;;;;2.22;2.03;;;23.20;88.90;23.50;100537.00;;;;4986771;28;94745;-71
2023/06/09 06:45:20;;;;;;;5.10;2.33;;;23.30;83.20;23.50;100532.00;;;;4989969;27;93002;-71
2023/06/09 06:47:45;;;;;;;3.00;2.38;;;23.30;82.50;23.60;100538.00;;;;4986960;27;101843;-70
2023/06/09 06:50:12;;;;;;;4.03;2.58;;;23.30;80.00;23.60;100546.00;;;;4988540;27;108113;-70
2023/06/09 06:52:38;;;;;;;3.15;2.15;;;23.30;77.20;23.50;100538.00;;;;4993033;27;95308;-70
2023/06/09 06:55:07;;;;;;;4.35;2.28;;;23.30;72.50;23.40;100537.00;;;;5005492;27;123987;-71
2023/06/09 06:57:34;;;;;;;2.67;2.47;;;23.20;72.90;23.40;100539.00;;;;5008004;27;92981;-70
2023/06/09 07:00:00;;;;;;;2.97;2.22;;;23.20;66.60;23.30;100530.00;;;;5004059;27;92992;-70
2023/06/09 07:02:26;;;;;;;3.42;2.55;;;23.10;66.10;23.30;100534.00;;;;4990088;27;93202;-70
2023/06/09 07:04:51;;;;;;;2.20;2.00;;;23.00;65.60;23.20;100542.00;;;;5005747;27;122311;-70
2023/06/09 07:07:17;;;;;;;3.38;2.17;;;23.00;65.20;23.20;100546.00;;;;5007448;27;110489;-69
2023/06/09 07:09:43;;;;;;;4.32;2.70;;;23.00;66.00;23.20;100536.00;;;;5004694;27;108637;-69
2023/06/09 07:12:08;;;;;;;4.43;3.10;;;22.90;65.30;23.20;100544.00;;;;5004567;27;122867;-68
2023/06/09 07:14:35;;;;;;;2.95;2.40;;;22.90;66.10;23.30;100548.00;;;;5001182;27;122454;-69
2023/06/09 07:17:01;;;;;;;5.50;1.95;;;23.00;66.50;23.30;100540.00;;;;5005686;27;93758;-70
2023/06/09 07:19:27;;;;;;;5.03;2.42;;;23.10;63.20;23.30;100545.00;;;;5006698;27;93158;-69
2023/06/09 07:21:53;;;;;;;3.80;2.45;;;23.10;62.30;23.30;100544.00;;;;5006668;27;122689;-70
2023/06/09 07:24:19;;;;;;;3.13;2.08;;;23.00;63.40;23.30;100545.00;;;;5007394;27;93769;-72
2023/06/09 07:26:45;;;;;;;3.63;2.45;;;23.10;63.40;23.30;100543.00;;;;5006602;27;110122;-70
2023/06/09 07:29:10;;;;;;;2.97;2.30;;;23.00;63.50;23.40;100541.00;;;;5004338;27;93273;-71
2023/06/09 07:31:36;;;;;;;2.58;2.38;;;23.10;63.80;23.40;100539.00;;;;4985689;27;119777;-71
2023/06/09 07:34:01;;;;;;;3.05;2.60;;;23.20;64.20;23.50;100551.00;;;;5005517;27;121854;-71
2023/06/09 07:36:29;;;;;;;4.68;2.60;;;23.20;63.00;23.60;100548.00;;;;4992446;27;109500;-70
2023/06/09 07:38:55;;;;;;;4.13;2.53;;;23.30;62.70;23.80;100543.00;;;;5007100;27;92723;-69
2023/06/09 07:41:21;;;;;;;4.38;2.45;;;23.40;62.00;24.00;100531.00;;;;5009319;27;94194;-68
2023/06/09 07:43:47;;;;;;;3.30;2.60;;;23.60;62.00;24.20;100537.00;;;;5010031;27;93155;-68
2023/06/09 07:46:14;;;;;;;4.10;2.22;;;23.80;62.10;24.70;100537.00;;;;5007681;27;108200;-70
2023/06/09 07:48:42;;;;;;;5.07;3.38;;;24.20;62.50;25.10;100541.00;;;;5004387;27;92790;-70
2023/06/09 07:51:09;;;;;;;3.95;1.88;;;24.60;62.40;25.60;100545.00;;;;5012436;27;93045;-70
2023/06/09 07:53:36;;;;;;;5.75;3.15;;;25.10;61.20;26.10;100543.00;;;;5007848;27;106153;-69
2023/06/09 07:56:02;;;;;;;4.18;2.90;;;25.60;59.90;26.50;100542.00;;;;5010647;27;93063;-71
2023/06/09 07:58:28;;;;;;;4.38;3.53;;;26.00;59.30;27.00;100541.00;;;;5005561;27;99830;-70
2023/06/09 08:00:53;;;;;;;4.95;2.80;;;26.40;58.70;27.40;100539.00;;;;5005097;27;105035;-75
2023/06/09 08:03:19;;;;;;;3.78;3.00;;;26.90;57.50;27.70;100540.00;;;;5001833;27;95022;-75
2023/06/09 08:05:45;;;;;;;3.80;3.30;;;27.20;56.70;27.90;100538.00;;;;4986479;27;97232;-76
2023/06/09 08:08:11;;;;;;;3.38;2.42;;;27.90;55.00;28.10;100539.00;;;;4983931;27;93031;-75
2023/06/09 08:10:36;;;;;;;3.50;3.20;;;27.70;54.90;28.30;100540.00;;;;4983583;27;122295;-77
2023/06/09 08:13:02;;;;;;;6.88;3.33;;;27.90;55.00;28.60;100536.00;;;;4994019;27;123139;-75
2023/06/09 08:15:28;;;;;;;3.95;3.03;;;28.20;54.80;28.90;100539.00;;;;5006622;27;109676;-75
2023/06/09 08:17:53;;;;;;;3.10;2.83;;;28.50;53.80;29.10;100540.00;;;;4966083;27;108964;-74
2023/06/09 08:20:19;;;;;;;5.18;4.07;;;28.80;52.80;29.40;100545.00;;;;5001182;27;122308;-74
2023/06/09 08:22:44;;;;;;;5.50;3.13;;;29.00;52.00;29.70;100531.00;;;;5008828;27;93429;-76
2023/06/09 08:25:24;;;;;;;4.82;3.17;;;29.30;51.40;30.00;100548.00;;;;5002282;27;107385;-75
2023/06/09 08:27:49;;;;;;;3.70;3.35;;;30.40;51.20;30.30;100546.00;;;;4979416;27;93211;-74
2023/06/09 08:30:15;;;;;;;4.63;3.53;;;29.90;49.70;30.50;100544.00;;;;4982211;27;123847;-76
2023/06/09 08:32:41;;;;;;;3.40;2.97;;;30.10;49.40;30.70;100543.00;;;;5007585;27;95464;-76
2023/06/09 08:35:08;;;;;;;4.10;3.30;;;30.30;49.20;30.80;100539.00;;;;5005646;27;93135;-79
2023/06/09 08:37:36;;;;;;;3.78;3.08;;;30.50;48.90;30.90;100535.00;;;;4976665;27;92954;-76
2023/06/09 08:40:04;;;;;;;3.55;3.10;;;30.50;48.60;31.00;100549.00;;;;5006508;27;93624;-77
2023/06/09 08:42:31;;;;;;;4.38;2.63;;;30.70;48.30;31.10;100549.00;;;;4993790;27;93222;-77
2023/06/09 08:45:04;;;;;;;5.30;3.45;;;30.80;48.20;31.30;100547.00;;;;4986806;27;102549;-74
2023/06/09 08:47:31;;;;;;;4.15;2.55;;;30.90;48.00;31.40;100545.00;;;;4993870;27;92645;-78
2023/06/09 08:49:59;;;;;;;6.68;3.20;;;31.00;47.80;31.50;100545.00;;;;4991915;27;93616;-77
2023/06/09 08:52:27;;;;;;;5.20;2.67;;;31.20;47.30;31.60;100551.00;;;;5003812;27;92931;-75
2023/06/09 08:54:57;;;;;;;3.58;3.20;;;31.30;47.20;31.70;100545.00;;;;4986507;27;93916;-76
2023/06/09 08:57:23;;;;;;;2.95;2.65;;;31.40;46.70;31.80;100550.00;;;;5008036;27;95637;-77
2023/06/09 08:59:50;;;;;;;5.22;3.60;;;31.50;46.40;31.90;100539.00;;;;4983953;27;123120;-75
2023/06/09 09:02:16;;;;;;;5.05;3.08;;;31.60;46.10;32.00;100543.00;;;;5008129;27;93037;-75
2023/06/09 09:04:43;;;;;;;2.85;2.50;;;31.70;46.10;32.10;100541.00;;;;5005100;27;93093;-78
2023/06/09 09:07:13;;;;;;;3.15;2.72;;;31.80;45.80;32.20;100539.00;;;;4992890;27;93042;-79
2023/06/09 09:09:40;;;;;;;3.70;3.00;;;31.80;45.70;32.30;100545.00;;;;4992728;27;93312;-76
2023/06/09 09:12:12;;;;;;;5.53;2.97;;;31.90;45.60;32.40;100545.00;;;;4986385;27;93141;-77
2023/06/09 09:14:45;;;;;;;3.60;2.65;;;32.10;45.40;32.50;100544.00;;;;4990621;27;103248;-76
2023/06/09 09:17:13;;;;;;;8.25;3.28;;;32.10;43.50;32.40;100542.00;;;;5006880;27;92809;-76
2023/06/09 09:19:49;;;;;;;4.13;3.17;;;32.10;43.90;32.50;100538.00;;;;5005737;27;108557;-76
2023/06/09 09:22:15;;;;;;;2.92;2.20;;;32.10;44.20;32.60;100540.00;;;;4989263;27;94518;-78
2023/06/09 09:24:45;;;;;;;2.58;2.15;;;32.20;43.80;32.80;100537.00;;;;5014765;27;100085;-76
2023/06/09 09:27:20;;;;;;;3.03;2.20;;;32.40;43.50;33.00;100552.00;;;;5000010;27;93036;-76
2023/06/09 09:29:46;;;;;;;3.35;2.22;;;32.50;43.40;33.10;100538.00;;;;4994130;27;94952;-78
2023/06/09 09:32:12;;;;;;;3.22;2.28;;;32.60;42.90;33.20;100537.00;;;;4998969;27;94912;-79
2023/06/09 09:34:41;;;;;;;3.20;2.75;;;32.80;42.80;33.30;100543.00;;;;5011276;27;92862;-76
2023/06/09 09:37:13;;;;;;;5.57;2.83;;;32.80;42.30;33.30;100539.00;;;;4980319;27;92164;-78
2023/06/09 09:39:52;;;;;;;3.60;2.65;;;32.90;41.50;33.40;100538.00;;;;5000259;27;111586;-76
2023/06/09 09:42:20;;;;;;;3.67;2.40;;;33.00;40.60;33.40;100535.00;;;;4979228;27;94947;-78
2023/06/09 09:44:47;;;;;;;2.75;2.38;;;33.00;39.70;33.40;100543.00;;;;4981051;27;95658;-75
2023/06/09 09:47:19;;;;;;;4.18;3.00;;;33.00;40.60;33.50;100530.00;;;;4995560;27;93199;-76
2023/06/09 09:49:58;;;;;;;4.57;2.70;;;33.10;39.90;33.50;100530.00;;;;4999956;27;94179;-77
2023/06/09 09:52:34;;;;;;;4.55;2.92;;;33.00;40.30;33.60;100534.00;;;;5000656;27;93218;-76
2023/06/09 09:55:04;;;;;;;3.72;2.65;;;33.20;40.00;33.80;100528.00;;;;5013468;27;92976;-80
2023/06/09 09:57:31;;;;;;;4.30;2.63;;;33.30;40.40;34.00;100524.00;;;;4985003;27;92998;-79
2023/06/09 10:00:03;;;;;;;2.55;2.15;;;33.50;40.50;34.20;100532.00;;;;4976809;27;95391;-77
2023/06/09 10:02:30;;;;;;;3.05;2.70;;;33.60;40.30;34.40;100523.00;;;;4989658;27;94666;-76
2023/06/09 10:04:56;;;;;;;2.53;2.25;;;33.80;40.10;34.50;100525.00;;;;4975391;27;92926;-77
2023/06/09 10:07:26;;;;;;;3.35;2.75;;;34.00;40.10;34.60;100518.00;;;;4989101;27;92965;-76
2023/06/09 10:09:53;;;;;;;2.95;2.00;;;34.10;39.10;34.70;100520.00;;;;4994793;27;94770;-77
2023/06/09 10:12:20;;;;;;;4.35;2.40;;;34.20;38.70;34.70;100513.00;;;;4997993;27;122721;-77
2023/06/09 10:14:48;;;;;;;4.30;2.50;;;34.20;38.60;34.70;100516.00;;;;4991538;27;92937;-77
2023/06/09 10:17:21;;;;;;;4.82;2.38;;;34.20;38.80;34.70;100507.00;;;;4982883;27;92840;-77
2023/06/09 10:19:51;;;;;;;2.95;2.58;;;34.20;38.60;34.90;100502.00;;;;5009971;27;92865;-77
2023/06/09 10:22:19;;;;;;;2.85;1.80;;;34.30;38.60;35.00;100508.00;;;;4995710;27;93317;-76
2023/06/09 10:24:46;;;;;;;2.97;1.83;;;34.30;38.50;35.20;100496.00;;;;4994109;27;93096;-76
2023/06/09 10:27:14;;;;;;;3.00;2.15;;;34.50;37.60;35.40;100500.00;;;;5012348;27;92070;-77
2023/06/09 10:29:40;;;;;;;2.85;1.85;;;34.70;37.90;35.50;100500.00;;;;4998843;27;92948;-78
2023/06/09 10:32:12;;;;;;;2.88;2.15;;;34.90;36.80;35.50;100497.00;;;;4980030;27;95063;-78
2023/06/09 10:34:41;;;;;;;2.40;1.85;;;34.90;35.90;35.60;100490.00;;;;4975191;27;110866;-78
2023/06/09 10:37:07;;;;;;;6.18;2.28;;;34.90;36.10;35.80;100488.00;;;;4994101;27;92868;-77
2023/06/09 10:40:28;;;;;;;2.40;1.25;;;35.00;35.90;36.10;100484.00;;;;4988761;27;121518;-78
2023/06/09 10:43:22;;;;;;;2.88;2.25;;;35.30;35.80;36.30;100489.00;;;;4982420;27;95433;-77
2023/06/09 10:45:57;;;;;;;5.65;2.15;;;35.70;35.00;36.40;100492.00;;;;4978252;27;98854;-77
2023/06/09 10:48:50;;;;;;;3.00;2.10;;;35.60;34.60;36.60;100481.00;;;;4997468;27;92958;-76
2023/06/09 10:51:27;;;;;;;4.32;2.28;;;35.80;34.00;36.50;100480.00;;;;5004235;27;93053;-76